Daphne, Alabama
Current Conditions -  °F | °C
As of 9:35 PM on Saturday 22 Nov 2014 (Local Time) from KCQF Reporting Station
Light Rain Light Rain  
Wind Chill: 59°   Ceiling: 500
Heat Index: 59°   Visibility: 10mi
Dew Point: 59°   Wind: 14mph
Humidity: 100%   Direction: 80°E
Pressure: 30"   Gusts: 17mph
Location:  30.6°N, 87.9°W
Report Text: KCQF 230335Z AUTO 08012G15KT 10SM -RA OVC005 15/15 A3000 RMK AO2
Loading
Personal Weather Stations






























Interactive Weather Map New forecast layout! Learn more

10-Day Weather Forecast

Advertisements
Track Severe Weather on mobile